sensor_id;sensor_type;location;lat;lon;timestamp;temperature;humidity
10722;DHT22;5412;59.450;18.124;2023-05-07T00:00:28;5.00;99.90
10722;DHT22;5412;59.450;18.124;2023-05-07T00:02:53;5.00;99.90
10722;DHT22;5412;59.450;18.124;2023-05-07T00:05:19;5.00;99.90
10722;DHT22;5412;59.450;18.124;2023-05-07T00:07:46;5.00;99.90
10722;DHT22;5412;59.450;18.124;2023-05-07T00:10:11;5.00;99.90
10722;DHT22;5412;59.450;18.124;2023-05-07T00:12:38;5.10;99.90
10722;DHT22;5412;59.450;18.124;2023-05-07T00:15:05;5.00;99.90
10722;DHT22;5412;59.450;18.124;2023-05-07T00:17:32;5.00;99.90
10722;DHT22;5412;59.450;18.124;2023-05-07T00:19:58;5.00;99.90
10722;DHT22;5412;59.450;18.124;2023-05-07T00:22:24;5.00;99.90
10722;DHT22;5412;59.450;18.124;2023-05-07T00:24:49;5.00;99.90
10722;DHT22;5412;59.450;18.124;2023-05-07T00:27:15;5.00;99.90
10722;DHT22;5412;59.450;18.124;2023-05-07T00:29:41;5.00;99.90
10722;DHT22;5412;59.450;18.124;2023-05-07T00:32:07;5.00;99.90
10722;DHT22;5412;59.450;18.124;2023-05-07T00:34:33;5.00;99.90
10722;DHT22;5412;59.450;18.124;2023-05-07T00:36:59;5.00;99.90
10722;DHT22;5412;59.450;18.124;2023-05-07T00:39:24;5.00;99.90
10722;DHT22;5412;59.450;18.124;2023-05-07T00:41:50;5.00;99.90
10722;DHT22;5412;59.450;18.124;2023-05-07T00:44:16;5.00;99.90
10722;DHT22;5412;59.450;18.124;2023-05-07T00:46:43;4.90;99.90
10722;DHT22;5412;59.450;18.124;2023-05-07T00:49:10;4.90;99.90
10722;DHT22;5412;59.450;18.124;2023-05-07T00:51:37;4.90;99.90
10722;DHT22;5412;59.450;18.124;2023-05-07T00:54:03;4.80;99.90
10722;DHT22;5412;59.450;18.124;2023-05-07T00:56:29;4.80;99.90
10722;DHT22;5412;59.450;18.124;2023-05-07T00:58:55;4.70;99.90
10722;DHT22;5412;59.450;18.124;2023-05-07T01:01:20;4.60;99.90
10722;DHT22;5412;59.450;18.124;2023-05-07T01:03:46;4.50;99.90
10722;DHT22;5412;59.450;18.124;2023-05-07T01:06:13;4.40;99.90
10722;DHT22;5412;59.450;18.124;2023-05-07T01:08:42;4.40;99.90
10722;DHT22;5412;59.450;18.124;2023-05-07T01:11:08;4.40;99.90
10722;DHT22;5412;59.450;18.124;2023-05-07T01:13:36;4.40;99.90
10722;DHT22;5412;59.450;18.124;2023-05-07T01:16:03;4.40;99.90
10722;DHT22;5412;59.450;18.124;2023-05-07T01:18:29;4.40;99.90
10722;DHT22;5412;59.450;18.124;2023-05-07T01:20:58;4.30;99.90
10722;DHT22;5412;59.450;18.124;2023-05-07T01:23:25;4.30;99.90
10722;DHT22;5412;59.450;18.124;2023-05-07T01:25:54;4.30;99.90
10722;DHT22;5412;59.450;18.124;2023-05-07T01:28:20;4.30;99.90
10722;DHT22;5412;59.450;18.124;2023-05-07T01:30:52;4.30;99.90
10722;DHT22;5412;59.450;18.124;2023-05-07T01:33:22;4.30;99.90
10722;DHT22;5412;59.450;18.124;2023-05-07T01:35:51;4.30;99.90
10722;DHT22;5412;59.450;18.124;2023-05-07T01:38:18;4.30;99.90
10722;DHT22;5412;59.450;18.124;2023-05-07T01:40:44;4.20;99.90
10722;DHT22;5412;59.450;18.124;2023-05-07T01:43:10;4.20;99.90
10722;DHT22;5412;59.450;18.124;2023-05-07T01:45:36;4.20;99.90
10722;DHT22;5412;59.450;18.124;2023-05-07T01:48:03;4.20;99.90
10722;DHT22;5412;59.450;18.124;2023-05-07T01:50:30;4.10;99.90
10722;DHT22;5412;59.450;18.124;2023-05-07T01:52:57;4.10;99.90
10722;DHT22;5412;59.450;18.124;2023-05-07T01:55:23;4.00;99.90
10722;DHT22;5412;59.450;18.124;2023-05-07T01:57:49;4.10;99.90
10722;DHT22;5412;59.450;18.124;2023-05-07T02:00:15;4.10;99.90
10722;DHT22;5412;59.450;18.124;2023-05-07T02:02:41;4.00;99.90
10722;DHT22;5412;59.450;18.124;2023-05-07T02:05:07;4.00;99.90
10722;DHT22;5412;59.450;18.124;2023-05-07T02:07:33;4.00;99.90
10722;DHT22;5412;59.450;18.124;2023-05-07T02:09:58;4.00;99.90
10722;DHT22;5412;59.450;18.124;2023-05-07T02:12:24;3.90;99.90
10722;DHT22;5412;59.450;18.124;2023-05-07T02:14:50;4.00;99.90
10722;DHT22;5412;59.450;18.124;2023-05-07T02:17:16;4.00;99.90
10722;DHT22;5412;59.450;18.124;2023-05-07T02:19:41;4.00;99.90
10722;DHT22;5412;59.450;18.124;2023-05-07T02:22:07;4.00;99.90
10722;DHT22;5412;59.450;18.124;2023-05-07T02:24:33;4.10;99.90
10722;DHT22;5412;59.450;18.124;2023-05-07T02:26:59;4.10;99.90
10722;DHT22;5412;59.450;18.124;2023-05-07T02:29:25;4.10;99.90
10722;DHT22;5412;59.450;18.124;2023-05-07T02:31:50;4.20;99.90
10722;DHT22;5412;59.450;18.124;2023-05-07T02:34:18;4.20;99.90
10722;DHT22;5412;59.450;18.124;2023-05-07T02:36:44;4.20;99.90
10722;DHT22;5412;59.450;18.124;2023-05-07T02:39:11;4.20;99.90
10722;DHT22;5412;59.450;18.124;2023-05-07T02:41:37;4.30;99.90
10722;DHT22;5412;59.450;18.124;2023-05-07T02:44:03;4.30;99.90
10722;DHT22;5412;59.450;18.124;2023-05-07T02:46:29;4.30;99.90
10722;DHT22;5412;59.450;18.124;2023-05-07T02:48:55;4.40;99.90
10722;DHT22;5412;59.450;18.124;2023-05-07T02:51:22;4.40;99.90
10722;DHT22;5412;59.450;18.124;2023-05-07T02:53:48;4.40;99.90
10722;DHT22;5412;59.450;18.124;2023-05-07T02:56:14;4.40;99.90
10722;DHT22;5412;59.450;18.124;2023-05-07T02:58:39;4.30;99.90
10722;DHT22;5412;59.450;18.124;2023-05-07T03:01:06;4.30;99.90
10722;DHT22;5412;59.450;18.124;2023-05-07T03:03:31;4.30;99.90
10722;DHT22;5412;59.450;18.124;2023-05-07T03:05:57;4.30;99.90
10722;DHT22;5412;59.450;18.124;2023-05-07T03:08:23;4.30;99.90
10722;DHT22;5412;59.450;18.124;2023-05-07T03:10:49;4.30;99.90
10722;DHT22;5412;59.450;18.124;2023-05-07T03:13:15;4.30;99.90
10722;DHT22;5412;59.450;18.124;2023-05-07T03:15:41;4.20;99.90
10722;DHT22;5412;59.450;18.124;2023-05-07T03:18:07;4.20;99.90
10722;DHT22;5412;59.450;18.124;2023-05-07T03:20:32;4.20;99.90
10722;DHT22;5412;59.450;18.124;2023-05-07T03:22:58;4.20;99.90
10722;DHT22;5412;59.450;18.124;2023-05-07T03:25:24;4.20;99.90
10722;DHT22;5412;59.450;18.124;2023-05-07T03:27:50;4.20;99.90
10722;DHT22;5412;59.450;18.124;2023-05-07T03:30:16;4.20;99.90
10722;DHT22;5412;59.450;18.124;2023-05-07T03:32:41;4.30;99.90
10722;DHT22;5412;59.450;18.124;2023-05-07T03:35:07;4.30;99.90
10722;DHT22;5412;59.450;18.124;2023-05-07T03:37:33;4.30;99.90
10722;DHT22;5412;59.450;18.124;2023-05-07T03:39:58;4.40;99.90
10722;DHT22;5412;59.450;18.124;2023-05-07T03:42:24;4.40;99.90
10722;DHT22;5412;59.450;18.124;2023-05-07T03:44:50;4.40;99.90
10722;DHT22;5412;59.450;18.124;2023-05-07T03:47:16;4.40;99.90
10722;DHT22;5412;59.450;18.124;2023-05-07T03:49:41;4.50;99.90
10722;DHT22;5412;59.450;18.124;2023-05-07T03:52:07;4.50;99.90
10722;DHT22;5412;59.450;18.124;2023-05-07T03:54:33;4.60;99.90
10722;DHT22;5412;59.450;18.124;2023-05-07T03:56:58;4.60;99.90
10722;DHT22;5412;59.450;18.124;2023-05-07T03:59:24;4.60;99.90
10722;DHT22;5412;59.450;18.124;2023-05-07T04:01:50;4.60;99.90
10722;DHT22;5412;59.450;18.124;2023-05-07T04:04:16;4.70;99.90
10722;DHT22;5412;59.450;18.124;2023-05-07T04:06:42;4.80;99.90
10722;DHT22;5412;59.450;18.124;2023-05-07T04:09:08;4.80;99.90
10722;DHT22;5412;59.450;18.124;2023-05-07T04:11:35;4.90;99.90
10722;DHT22;5412;59.450;18.124;2023-05-07T04:14:01;5.00;99.90
10722;DHT22;5412;59.450;18.124;2023-05-07T04:16:26;4.90;99.90
10722;DHT22;5412;59.450;18.124;2023-05-07T04:18:52;5.00;99.90
10722;DHT22;5412;59.450;18.124;2023-05-07T04:21:19;5.00;99.90
10722;DHT22;5412;59.450;18.124;2023-05-07T04:23:48;5.10;99.90
10722;DHT22;5412;59.450;18.124;2023-05-07T04:26:15;5.20;99.90
10722;DHT22;5412;59.450;18.124;2023-05-07T04:28:41;5.20;99.90
10722;DHT22;5412;59.450;18.124;2023-05-07T04:31:07;5.30;99.90
10722;DHT22;5412;59.450;18.124;2023-05-07T04:33:33;5.40;99.90
10722;DHT22;5412;59.450;18.124;2023-05-07T04:36:02;5.40;99.90
10722;DHT22;5412;59.450;18.124;2023-05-07T04:38:30;5.50;99.90
10722;DHT22;5412;59.450;18.124;2023-05-07T04:40:57;5.50;99.90
10722;DHT22;5412;59.450;18.124;2023-05-07T04:43:23;5.50;99.90
10722;DHT22;5412;59.450;18.124;2023-05-07T04:45:52;5.50;99.90
10722;DHT22;5412;59.450;18.124;2023-05-07T04:48:17;5.60;99.90
10722;DHT22;5412;59.450;18.124;2023-05-07T04:50:51;5.70;99.90
10722;DHT22;5412;59.450;18.124;2023-05-07T04:53:18;5.80;99.90
10722;DHT22;5412;59.450;18.124;2023-05-07T04:55:44;5.80;99.90
10722;DHT22;5412;59.450;18.124;2023-05-07T04:58:11;5.90;99.90
10722;DHT22;5412;59.450;18.124;2023-05-07T05:00:37;5.90;99.90
10722;DHT22;5412;59.450;18.124;2023-05-07T05:03:04;5.90;99.90
10722;DHT22;5412;59.450;18.124;2023-05-07T05:05:30;6.00;99.90
10722;DHT22;5412;59.450;18.124;2023-05-07T05:07:56;6.10;99.90
10722;DHT22;5412;59.450;18.124;2023-05-07T05:10:22;6.20;99.90
10722;DHT22;5412;59.450;18.124;2023-05-07T05:12:48;6.20;99.90
10722;DHT22;5412;59.450;18.124;2023-05-07T05:15:13;6.40;99.90
10722;DHT22;5412;59.450;18.124;2023-05-07T05:17:39;6.50;99.90
10722;DHT22;5412;59.450;18.124;2023-05-07T05:20:05;6.60;99.90
10722;DHT22;5412;59.450;18.124;2023-05-07T05:22:32;6.70;99.90
10722;DHT22;5412;59.450;18.124;2023-05-07T05:24:58;6.80;99.90
10722;DHT22;5412;59.450;18.124;2023-05-07T05:27:23;6.80;99.90
10722;DHT22;5412;59.450;18.124;2023-05-07T05:29:49;6.90;99.90
10722;DHT22;5412;59.450;18.124;2023-05-07T05:32:15;7.10;99.90
10722;DHT22;5412;59.450;18.124;2023-05-07T05:34:41;7.20;99.90
10722;DHT22;5412;59.450;18.124;2023-05-07T05:37:06;7.20;99.90
10722;DHT22;5412;59.450;18.124;2023-05-07T05:39:32;7.20;99.90
10722;DHT22;5412;59.450;18.124;2023-05-07T05:41:58;7.30;99.90
10722;DHT22;5412;59.450;18.124;2023-05-07T05:44:23;7.30;99.90
10722;DHT22;5412;59.450;18.124;2023-05-07T05:46:49;7.40;99.90
10722;DHT22;5412;59.450;18.124;2023-05-07T05:49:15;7.40;99.90
10722;DHT22;5412;59.450;18.124;2023-05-07T05:51:41;7.60;99.90
10722;DHT22;5412;59.450;18.124;2023-05-07T05:54:07;7.60;99.90
10722;DHT22;5412;59.450;18.124;2023-05-07T05:56:32;7.70;99.90
10722;DHT22;5412;59.450;18.124;2023-05-07T05:58:58;7.90;99.90
10722;DHT22;5412;59.450;18.124;2023-05-07T06:01:24;7.80;99.90
10722;DHT22;5412;59.450;18.124;2023-05-07T06:03:50;7.90;99.90
10722;DHT22;5412;59.450;18.124;2023-05-07T06:06:16;7.90;99.90
10722;DHT22;5412;59.450;18.124;2023-05-07T06:08:42;7.90;99.90
10722;DHT22;5412;59.450;18.124;2023-05-07T06:11:07;8.00;99.90
10722;DHT22;5412;59.450;18.124;2023-05-07T06:13:33;8.10;99.90
10722;DHT22;5412;59.450;18.124;2023-05-07T06:15:59;8.10;99.90
10722;DHT22;5412;59.450;18.124;2023-05-07T06:18:25;8.20;99.90
10722;DHT22;5412;59.450;18.124;2023-05-07T06:20:52;8.30;99.90
10722;DHT22;5412;59.450;18.124;2023-05-07T06:23:17;8.40;99.90
10722;DHT22;5412;59.450;18.124;2023-05-07T06:25:48;8.50;99.90
10722;DHT22;5412;59.450;18.124;2023-05-07T06:28:15;8.40;99.90
10722;DHT22;5412;59.450;18.124;2023-05-07T06:30:41;8.60;99.90
10722;DHT22;5412;59.450;18.124;2023-05-07T06:33:07;8.70;99.90
10722;DHT22;5412;59.450;18.124;2023-05-07T06:35:32;8.70;99.90
10722;DHT22;5412;59.450;18.124;2023-05-07T06:37:59;8.70;99.90
10722;DHT22;5412;59.450;18.124;2023-05-07T06:40:25;8.70;99.90
10722;DHT22;5412;59.450;18.124;2023-05-07T06:42:51;8.90;99.90
10722;DHT22;5412;59.450;18.124;2023-05-07T06:45:16;9.00;99.90
10722;DHT22;5412;59.450;18.124;2023-05-07T06:47:42;9.10;99.90
10722;DHT22;5412;59.450;18.124;2023-05-07T06:50:08;9.10;99.90
10722;DHT22;5412;59.450;18.124;2023-05-07T06:52:35;9.20;99.90
10722;DHT22;5412;59.450;18.124;2023-05-07T06:55:01;9.20;99.90
10722;DHT22;5412;59.450;18.124;2023-05-07T06:57:26;9.30;99.90
10722;DHT22;5412;59.450;18.124;2023-05-07T06:59:52;9.30;99.90
10722;DHT22;5412;59.450;18.124;2023-05-07T07:02:18;9.30;99.90
10722;DHT22;5412;59.450;18.124;2023-05-07T07:04:43;9.40;99.90
10722;DHT22;5412;59.450;18.124;2023-05-07T07:07:10;9.40;99.90
10722;DHT22;5412;59.450;18.124;2023-05-07T07:09:36;9.60;99.90
10722;DHT22;5412;59.450;18.124;2023-05-07T07:12:02;9.60;99.90
10722;DHT22;5412;59.450;18.124;2023-05-07T07:14:28;9.70;99.90
10722;DHT22;5412;59.450;18.124;2023-05-07T07:16:53;9.70;99.90
10722;DHT22;5412;59.450;18.124;2023-05-07T07:19:19;9.70;99.90
10722;DHT22;5412;59.450;18.124;2023-05-07T07:21:46;9.70;99.90
10722;DHT22;5412;59.450;18.124;2023-05-07T07:24:13;9.90;99.90
10722;DHT22;5412;59.450;18.124;2023-05-07T07:26:38;10.00;99.90
10722;DHT22;5412;59.450;18.124;2023-05-07T07:29:05;10.10;99.90
10722;DHT22;5412;59.450;18.124;2023-05-07T07:31:32;10.20;99.90
10722;DHT22;5412;59.450;18.124;2023-05-07T07:33:58;10.20;99.90
10722;DHT22;5412;59.450;18.124;2023-05-07T07:36:23;10.30;99.90
10722;DHT22;5412;59.450;18.124;2023-05-07T07:38:49;10.30;99.90
10722;DHT22;5412;59.450;18.124;2023-05-07T07:41:15;10.40;99.90
10722;DHT22;5412;59.450;18.124;2023-05-07T07:43:40;10.50;99.90
10722;DHT22;5412;59.450;18.124;2023-05-07T07:46:06;10.50;99.90
10722;DHT22;5412;59.450;18.124;2023-05-07T07:48:32;10.50;99.90
10722;DHT22;5412;59.450;18.124;2023-05-07T07:50:58;10.60;99.90
10722;DHT22;5412;59.450;18.124;2023-05-07T07:53:24;10.60;99.90
10722;DHT22;5412;59.450;18.124;2023-05-07T07:55:49;10.70;99.90
10722;DHT22;5412;59.450;18.124;2023-05-07T07:58:15;10.90;99.90
10722;DHT22;5412;59.450;18.124;2023-05-07T08:00:41;10.90;99.90
10722;DHT22;5412;59.450;18.124;2023-05-07T08:03:09;10.90;99.90
10722;DHT22;5412;59.450;18.124;2023-05-07T08:05:35;11.00;99.90
10722;DHT22;5412;59.450;18.124;2023-05-07T08:08:02;11.10;99.90
10722;DHT22;5412;59.450;18.124;2023-05-07T08:10:27;11.10;99.90
10722;DHT22;5412;59.450;18.124;2023-05-07T08:12:53;11.10;99.90
10722;DHT22;5412;59.450;18.124;2023-05-07T08:15:19;11.10;99.90
10722;DHT22;5412;59.450;18.124;2023-05-07T08:17:45;11.30;99.90
10722;DHT22;5412;59.450;18.124;2023-05-07T08:20:10;11.30;99.90
10722;DHT22;5412;59.450;18.124;2023-05-07T08:22:36;11.40;99.90
10722;DHT22;5412;59.450;18.124;2023-05-07T08:25:03;11.50;99.90
10722;DHT22;5412;59.450;18.124;2023-05-07T08:27:28;11.50;99.90
10722;DHT22;5412;59.450;18.124;2023-05-07T08:29:54;11.60;99.90
10722;DHT22;5412;59.450;18.124;2023-05-07T08:32:20;11.50;99.90
10722;DHT22;5412;59.450;18.124;2023-05-07T08:34:47;11.70;99.90
10722;DHT22;5412;59.450;18.124;2023-05-07T08:37:13;11.80;99.40
10722;DHT22;5412;59.450;18.124;2023-05-07T08:39:39;12.00;99.00
10722;DHT22;5412;59.450;18.124;2023-05-07T08:42:05;11.90;98.50
10722;DHT22;5412;59.450;18.124;2023-05-07T08:44:35;12.00;98.10
10722;DHT22;5412;59.450;18.124;2023-05-07T08:47:06;11.90;97.60
10722;DHT22;5412;59.450;18.124;2023-05-07T08:49:34;11.80;97.10
10722;DHT22;5412;59.450;18.124;2023-05-07T08:52:00;11.70;95.70
10722;DHT22;5412;59.450;18.124;2023-05-07T08:54:28;11.80;96.30
10722;DHT22;5412;59.450;18.124;2023-05-07T08:56:54;11.80;95.20
10722;DHT22;5412;59.450;18.124;2023-05-07T08:59:20;11.90;95.80
10722;DHT22;5412;59.450;18.124;2023-05-07T09:01:46;12.00;95.20
10722;DHT22;5412;59.450;18.124;2023-05-07T09:04:12;12.10;94.00
10722;DHT22;5412;59.450;18.124;2023-05-07T09:06:38;12.20;93.90
10722;DHT22;5412;59.450;18.124;2023-05-07T09:09:07;12.20;93.60
10722;DHT22;5412;59.450;18.124;2023-05-07T09:11:33;12.30;92.70
10722;DHT22;5412;59.450;18.124;2023-05-07T09:13:59;12.30;93.20
10722;DHT22;5412;59.450;18.124;2023-05-07T09:16:28;12.40;92.20
10722;DHT22;5412;59.450;18.124;2023-05-07T09:18:54;12.40;92.20
10722;DHT22;5412;59.450;18.124;2023-05-07T09:21:21;12.50;91.70
10722;DHT22;5412;59.450;18.124;2023-05-07T09:23:51;12.50;91.40
10722;DHT22;5412;59.450;18.124;2023-05-07T09:26:17;12.60;91.60
10722;DHT22;5412;59.450;18.124;2023-05-07T09:28:43;12.60;92.20
10722;DHT22;5412;59.450;18.124;2023-05-07T09:31:10;12.60;93.10
10722;DHT22;5412;59.450;18.124;2023-05-07T09:33:37;12.60;92.00
10722;DHT22;5412;59.450;18.124;2023-05-07T09:36:07;12.70;92.00
10722;DHT22;5412;59.450;18.124;2023-05-07T09:38:34;12.70;90.60
10722;DHT22;5412;59.450;18.124;2023-05-07T09:41:09;12.70;90.50
10722;DHT22;5412;59.450;18.124;2023-05-07T09:43:36;12.70;90.50
10722;DHT22;5412;59.450;18.124;2023-05-07T09:46:05;12.80;91.10
10722;DHT22;5412;59.450;18.124;2023-05-07T09:48:34;12.80;90.80
10722;DHT22;5412;59.450;18.124;2023-05-07T09:51:02;12.80;91.20
10722;DHT22;5412;59.450;18.124;2023-05-07T09:53:33;12.80;90.70
10722;DHT22;5412;59.450;18.124;2023-05-07T09:55:59;12.80;90.30
10722;DHT22;5412;59.450;18.124;2023-05-07T09:58:26;12.80;90.10
10722;DHT22;5412;59.450;18.124;2023-05-07T10:00:52;12.90;89.50
10722;DHT22;5412;59.450;18.124;2023-05-07T10:03:19;12.90;88.30
10722;DHT22;5412;59.450;18.124;2023-05-07T10:05:46;12.70;88.20
10722;DHT22;5412;59.450;18.124;2023-05-07T10:08:13;12.90;89.50
10722;DHT22;5412;59.450;18.124;2023-05-07T10:10:39;12.90;88.50
10722;DHT22;5412;59.450;18.124;2023-05-07T10:13:05;13.00;87.70
10722;DHT22;5412;59.450;18.124;2023-05-07T10:15:36;13.00;88.70
10722;DHT22;5412;59.450;18.124;2023-05-07T10:18:04;13.10;86.30
10722;DHT22;5412;59.450;18.124;2023-05-07T10:20:32;12.90;87.20
10722;DHT22;5412;59.450;18.124;2023-05-07T10:22:58;13.00;87.10
10722;DHT22;5412;59.450;18.124;2023-05-07T10:25:34;13.00;88.60
10722;DHT22;5412;59.450;18.124;2023-05-07T10:28:05;13.00;88.40
10722;DHT22;5412;59.450;18.124;2023-05-07T10:33:10;13.00;87.30
10722;DHT22;5412;59.450;18.124;2023-05-07T10:35:44;12.90;87.90
10722;DHT22;5412;59.450;18.124;2023-05-07T10:38:10;12.90;87.30
10722;DHT22;5412;59.450;18.124;2023-05-07T10:40:36;12.90;87.50
10722;DHT22;5412;59.450;18.124;2023-05-07T10:43:04;13.00;87.60
10722;DHT22;5412;59.450;18.124;2023-05-07T10:45:33;13.20;87.80
10722;DHT22;5412;59.450;18.124;2023-05-07T10:48:10;13.10;87.20
10722;DHT22;5412;59.450;18.124;2023-05-07T10:50:37;13.20;88.80
10722;DHT22;5412;59.450;18.124;2023-05-07T10:55:48;13.20;87.20
10722;DHT22;5412;59.450;18.124;2023-05-07T10:58:30;13.20;88.40
10722;DHT22;5412;59.450;18.124;2023-05-07T11:01:00;13.20;87.50
10722;DHT22;5412;59.450;18.124;2023-05-07T11:03:27;13.30;88.90
10722;DHT22;5412;59.450;18.124;2023-05-07T11:06:13;13.30;89.30
10722;DHT22;5412;59.450;18.124;2023-05-07T11:11:18;13.30;88.70
10722;DHT22;5412;59.450;18.124;2023-05-07T11:13:46;13.20;90.40
10722;DHT22;5412;59.450;18.124;2023-05-07T11:16:22;13.30;90.20
10722;DHT22;5412;59.450;18.124;2023-05-07T11:18:54;13.40;90.00
10722;DHT22;5412;59.450;18.124;2023-05-07T11:21:37;13.60;90.80
10722;DHT22;5412;59.450;18.124;2023-05-07T11:24:04;13.60;89.60
10722;DHT22;5412;59.450;18.124;2023-05-07T11:26:42;13.60;89.80
10722;DHT22;5412;59.450;18.124;2023-05-07T11:29:16;13.70;90.30
10722;DHT22;5412;59.450;18.124;2023-05-07T11:31:43;13.60;90.50
10722;DHT22;5412;59.450;18.124;2023-05-07T11:34:09;13.60;90.40
10722;DHT22;5412;59.450;18.124;2023-05-07T11:36:41;13.60;90.70
10722;DHT22;5412;59.450;18.124;2023-05-07T11:41:54;13.60;90.30
10722;DHT22;5412;59.450;18.124;2023-05-07T11:44:20;13.60;90.00
10722;DHT22;5412;59.450;18.124;2023-05-07T11:46:45;13.50;89.00
10722;DHT22;5412;59.450;18.124;2023-05-07T11:49:12;13.50;90.00
10722;DHT22;5412;59.450;18.124;2023-05-07T11:51:39;13.50;90.30
10722;DHT22;5412;59.450;18.124;2023-05-07T11:54:05;13.50;90.20
10722;DHT22;5412;59.450;18.124;2023-05-07T11:56:34;13.60;90.50
10722;DHT22;5412;59.450;18.124;2023-05-07T11:59:04;13.60;91.30
10722;DHT22;5412;59.450;18.124;2023-05-07T12:01:30;13.60;90.60
10722;DHT22;5412;59.450;18.124;2023-05-07T12:03:55;13.70;91.20
10722;DHT22;5412;59.450;18.124;2023-05-07T12:06:21;13.80;90.50
10722;DHT22;5412;59.450;18.124;2023-05-07T12:08:47;13.70;90.70
10722;DHT22;5412;59.450;18.124;2023-05-07T12:11:23;13.80;90.10
10722;DHT22;5412;59.450;18.124;2023-05-07T12:13:50;13.90;90.60
10722;DHT22;5412;59.450;18.124;2023-05-07T12:16:16;14.10;90.60
10722;DHT22;5412;59.450;18.124;2023-05-07T12:18:43;14.20;89.70
10722;DHT22;5412;59.450;18.124;2023-05-07T12:21:09;14.40;89.90
10722;DHT22;5412;59.450;18.124;2023-05-07T12:23:37;14.30;88.50
10722;DHT22;5412;59.450;18.124;2023-05-07T12:26:03;14.30;89.40
10722;DHT22;5412;59.450;18.124;2023-05-07T12:28:29;14.20;89.90
10722;DHT22;5412;59.450;18.124;2023-05-07T12:30:56;13.90;88.90
10722;DHT22;5412;59.450;18.124;2023-05-07T12:33:26;14.00;89.70
10722;DHT22;5412;59.450;18.124;2023-05-07T12:35:55;14.30;90.20
10722;DHT22;5412;59.450;18.124;2023-05-07T12:38:21;14.50;90.30
10722;DHT22;5412;59.450;18.124;2023-05-07T12:40:53;14.60;89.70
10722;DHT22;5412;59.450;18.124;2023-05-07T12:43:19;14.70;89.30
10722;DHT22;5412;59.450;18.124;2023-05-07T12:45:47;14.80;88.10
10722;DHT22;5412;59.450;18.124;2023-05-07T12:48:14;15.20;87.40
10722;DHT22;5412;59.450;18.124;2023-05-07T12:50:40;15.20;87.20
10722;DHT22;5412;59.450;18.124;2023-05-07T12:53:07;15.30;87.00
10722;DHT22;5412;59.450;18.124;2023-05-07T12:55:51;15.50;85.70
10722;DHT22;5412;59.450;18.124;2023-05-07T12:58:24;15.50;85.00
10722;DHT22;5412;59.450;18.124;2023-05-07T13:00:51;15.60;83.70
10722;DHT22;5412;59.450;18.124;2023-05-07T13:03:27;15.70;80.60
10722;DHT22;5412;59.450;18.124;2023-05-07T13:05:55;15.80;81.80
10722;DHT22;5412;59.450;18.124;2023-05-07T13:08:29;15.70;80.30
10722;DHT22;5412;59.450;18.124;2023-05-07T13:10:57;16.00;80.20
10722;DHT22;5412;59.450;18.124;2023-05-07T13:13:23;15.90;79.70
10722;DHT22;5412;59.450;18.124;2023-05-07T13:15:48;15.90;79.60
10722;DHT22;5412;59.450;18.124;2023-05-07T13:18:14;16.10;77.80
10722;DHT22;5412;59.450;18.124;2023-05-07T13:20:40;16.10;76.80
10722;DHT22;5412;59.450;18.124;2023-05-07T13:23:06;16.30;77.80
10722;DHT22;5412;59.450;18.124;2023-05-07T13:25:31;16.30;77.40
10722;DHT22;5412;59.450;18.124;2023-05-07T13:27:57;16.30;75.50
10722;DHT22;5412;59.450;18.124;2023-05-07T13:30:23;16.30;75.00
10722;DHT22;5412;59.450;18.124;2023-05-07T13:32:49;16.50;75.40
10722;DHT22;5412;59.450;18.124;2023-05-07T13:35:16;16.60;74.60
10722;DHT22;5412;59.450;18.124;2023-05-07T13:37:42;16.80;73.40
10722;DHT22;5412;59.450;18.124;2023-05-07T13:40:08;16.60;73.00
10722;DHT22;5412;59.450;18.124;2023-05-07T13:42:34;16.90;72.80
10722;DHT22;5412;59.450;18.124;2023-05-07T13:44:59;16.80;73.10
10722;DHT22;5412;59.450;18.124;2023-05-07T13:47:26;16.90;73.30
10722;DHT22;5412;59.450;18.124;2023-05-07T13:49:52;16.80;73.80
10722;DHT22;5412;59.450;18.124;2023-05-07T13:52:19;17.00;71.20
10722;DHT22;5412;59.450;18.124;2023-05-07T13:54:45;17.20;70.00
10722;DHT22;5412;59.450;18.124;2023-05-07T13:57:11;17.10;68.90
10722;DHT22;5412;59.450;18.124;2023-05-07T13:59:37;17.10;68.80
10722;DHT22;5412;59.450;18.124;2023-05-07T14:02:02;17.20;67.70
10722;DHT22;5412;59.450;18.124;2023-05-07T14:04:30;17.10;68.10
10722;DHT22;5412;59.450;18.124;2023-05-07T14:06:56;17.40;68.00
10722;DHT22;5412;59.450;18.124;2023-05-07T14:09:21;17.30;67.30
10722;DHT22;5412;59.450;18.124;2023-05-07T14:11:47;17.60;65.90
10722;DHT22;5412;59.450;18.124;2023-05-07T14:14:17;17.80;65.30
10722;DHT22;5412;59.450;18.124;2023-05-07T14:16:42;17.70;66.00
10722;DHT22;5412;59.450;18.124;2023-05-07T14:19:08;18.00;65.50
10722;DHT22;5412;59.450;18.124;2023-05-07T14:21:34;18.10;66.30
10722;DHT22;5412;59.450;18.124;2023-05-07T14:24:00;18.40;65.60
10722;DHT22;5412;59.450;18.124;2023-05-07T14:26:25;18.80;64.60
10722;DHT22;5412;59.450;18.124;2023-05-07T14:28:52;18.70;61.20
10722;DHT22;5412;59.450;18.124;2023-05-07T14:31:20;18.90;60.20
10722;DHT22;5412;59.450;18.124;2023-05-07T14:33:46;19.10;61.20
10722;DHT22;5412;59.450;18.124;2023-05-07T14:36:12;19.30;61.10
10722;DHT22;5412;59.450;18.124;2023-05-07T14:38:38;19.60;59.40
10722;DHT22;5412;59.450;18.124;2023-05-07T14:41:03;19.70;58.50
10722;DHT22;5412;59.450;18.124;2023-05-07T14:43:29;19.70;58.20
10722;DHT22;5412;59.450;18.124;2023-05-07T14:45:55;19.70;57.90
10722;DHT22;5412;59.450;18.124;2023-05-07T14:48:21;19.60;57.50
10722;DHT22;5412;59.450;18.124;2023-05-07T14:50:47;19.50;56.80
10722;DHT22;5412;59.450;18.124;2023-05-07T14:53:13;19.50;56.10
10722;DHT22;5412;59.450;18.124;2023-05-07T14:55:39;19.40;57.00
10722;DHT22;5412;59.450;18.124;2023-05-07T14:58:05;19.10;57.40
10722;DHT22;5412;59.450;18.124;2023-05-07T15:00:31;19.30;56.90
10722;DHT22;5412;59.450;18.124;2023-05-07T15:03:05;19.10;57.00
10722;DHT22;5412;59.450;18.124;2023-05-07T15:05:32;19.20;56.70
10722;DHT22;5412;59.450;18.124;2023-05-07T15:07:58;19.10;56.30
10722;DHT22;5412;59.450;18.124;2023-05-07T15:10:24;18.90;56.50
10722;DHT22;5412;59.450;18.124;2023-05-07T15:12:49;18.60;56.30
10722;DHT22;5412;59.450;18.124;2023-05-07T15:15:15;18.20;57.20
10722;DHT22;5412;59.450;18.124;2023-05-07T15:17:41;17.90;57.20
10722;DHT22;5412;59.450;18.124;2023-05-07T15:20:07;18.10;57.30
10722;DHT22;5412;59.450;18.124;2023-05-07T15:22:33;18.00;57.00
10722;DHT22;5412;59.450;18.124;2023-05-07T15:24:59;18.20;57.90
10722;DHT22;5412;59.450;18.124;2023-05-07T15:27:25;18.30;56.80
10722;DHT22;5412;59.450;18.124;2023-05-07T15:29:51;17.70;57.20
10722;DHT22;5412;59.450;18.124;2023-05-07T15:32:17;17.60;57.40
10722;DHT22;5412;59.450;18.124;2023-05-07T15:34:43;17.60;57.50
10722;DHT22;5412;59.450;18.124;2023-05-07T15:37:08;17.70;57.90
10722;DHT22;5412;59.450;18.124;2023-05-07T15:39:35;17.80;57.20
10722;DHT22;5412;59.450;18.124;2023-05-07T15:42:00;17.80;57.70
10722;DHT22;5412;59.450;18.124;2023-05-07T15:44:26;17.70;57.80